sensor_id;sensor_type;location;lat;lon;timestamp;P1;durP1;ratioP1;P2;durP2;ratioP2
23596;SDS011;40226;50.874;4.394;2022-08-20T00:02:02;14.07;;;8.60;;
23596;SDS011;40226;50.874;4.394;2022-08-20T00:04:27;12.50;;;7.72;;
23596;SDS011;40226;50.874;4.394;2022-08-20T00:06:53;15.07;;;8.25;;
23596;SDS011;40226;50.874;4.394;2022-08-20T00:09:18;14.15;;;8.32;;
23596;SDS011;40226;50.874;4.394;2022-08-20T00:11:44;14.27;;;8.18;;
23596;SDS011;40226;50.874;4.394;2022-08-20T00:14:10;14.52;;;8.18;;
23596;SDS011;40226;50.874;4.394;2022-08-20T00:16:36;13.82;;;7.25;;
23596;SDS011;40226;50.874;4.394;2022-08-20T00:19:04;14.18;;;6.88;;
23596;SDS011;40226;50.874;4.394;2022-08-20T00:21:32;15.73;;;7.20;;
23596;SDS011;40226;50.874;4.394;2022-08-20T00:23:57;13.13;;;6.47;;
23596;SDS011;40226;50.874;4.394;2022-08-20T00:26:23;12.02;;;6.30;;
23596;SDS011;40226;50.874;4.394;2022-08-20T00:28:50;14.93;;;6.15;;
23596;SDS011;40226;50.874;4.394;2022-08-20T00:31:17;12.48;;;6.55;;
23596;SDS011;40226;50.874;4.394;2022-08-20T00:33:44;12.77;;;7.82;;
23596;SDS011;40226;50.874;4.394;2022-08-20T00:36:11;12.10;;;7.82;;
23596;SDS011;40226;50.874;4.394;2022-08-20T00:38:40;14.88;;;8.07;;
23596;SDS011;40226;50.874;4.394;2022-08-20T00:41:09;15.70;;;7.80;;
23596;SDS011;40226;50.874;4.394;2022-08-20T00:43:43;13.40;;;7.65;;
23596;SDS011;40226;50.874;4.394;2022-08-20T00:46:12;15.75;;;7.90;;
23596;SDS011;40226;50.874;4.394;2022-08-20T00:48:44;13.15;;;7.53;;
23596;SDS011;40226;50.874;4.394;2022-08-20T00:51:26;15.25;;;7.20;;
23596;SDS011;40226;50.874;4.394;2022-08-20T00:54:06;13.20;;;7.22;;
23596;SDS011;40226;50.874;4.394;2022-08-20T00:56:32;20.20;;;7.47;;
23596;SDS011;40226;50.874;4.394;2022-08-20T00:58:59;18.90;;;7.13;;
23596;SDS011;40226;50.874;4.394;2022-08-20T01:01:26;13.55;;;6.82;;
23596;SDS011;40226;50.874;4.394;2022-08-20T01:03:53;14.77;;;6.68;;
23596;SDS011;40226;50.874;4.394;2022-08-20T01:06:22;18.13;;;7.00;;
23596;SDS011;40226;50.874;4.394;2022-08-20T01:08:48;17.00;;;7.28;;
23596;SDS011;40226;50.874;4.394;2022-08-20T01:11:14;20.13;;;7.28;;
23596;SDS011;40226;50.874;4.394;2022-08-20T01:13:42;22.13;;;7.38;;
23596;SDS011;40226;50.874;4.394;2022-08-20T01:16:14;21.40;;;7.43;;
23596;SDS011;40226;50.874;4.394;2022-08-20T01:18:46;17.63;;;6.80;;
23596;SDS011;40226;50.874;4.394;2022-08-20T01:21:13;18.10;;;6.97;;
23596;SDS011;40226;50.874;4.394;2022-08-20T01:23:53;14.68;;;6.85;;
23596;SDS011;40226;50.874;4.394;2022-08-20T01:26:30;18.88;;;6.97;;
23596;SDS011;40226;50.874;4.394;2022-08-20T01:29:03;23.65;;;7.05;;
23596;SDS011;40226;50.874;4.394;2022-08-20T01:31:41;20.80;;;7.07;;
23596;SDS011;40226;50.874;4.394;2022-08-20T01:34:12;19.52;;;6.80;;
23596;SDS011;40226;50.874;4.394;2022-08-20T01:36:41;20.15;;;6.95;;
23596;SDS011;40226;50.874;4.394;2022-08-20T01:39:11;16.58;;;6.53;;
23596;SDS011;40226;50.874;4.394;2022-08-20T01:44:13;17.40;;;6.82;;
23596;SDS011;40226;50.874;4.394;2022-08-20T01:46:40;18.02;;;6.75;;
23596;SDS011;40226;50.874;4.394;2022-08-20T01:49:12;20.13;;;6.45;;
23596;SDS011;40226;50.874;4.394;2022-08-20T01:51:47;22.70;;;6.55;;
23596;SDS011;40226;50.874;4.394;2022-08-20T01:54:15;20.23;;;6.65;;
23596;SDS011;40226;50.874;4.394;2022-08-20T01:59:21;19.40;;;6.85;;
23596;SDS011;40226;50.874;4.394;2022-08-20T02:01:47;20.73;;;6.80;;
23596;SDS011;40226;50.874;4.394;2022-08-20T02:04:13;24.10;;;6.75;;
23596;SDS011;40226;50.874;4.394;2022-08-20T02:06:42;20.98;;;7.00;;
23596;SDS011;40226;50.874;4.394;2022-08-20T02:09:10;16.67;;;6.38;;
23596;SDS011;40226;50.874;4.394;2022-08-20T02:11:37;26.42;;;6.65;;
23596;SDS011;40226;50.874;4.394;2022-08-20T02:14:04;18.25;;;6.43;;
23596;SDS011;40226;50.874;4.394;2022-08-20T02:16:33;21.95;;;6.82;;
23596;SDS011;40226;50.874;4.394;2022-08-20T02:19:07;20.95;;;6.47;;
23596;SDS011;40226;50.874;4.394;2022-08-20T02:21:42;21.08;;;6.90;;
23596;SDS011;40226;50.874;4.394;2022-08-20T02:24:10;17.63;;;6.10;;
23596;SDS011;40226;50.874;4.394;2022-08-20T02:26:36;25.48;;;7.75;;
23596;SDS011;40226;50.874;4.394;2022-08-20T02:29:04;22.58;;;8.13;;
23596;SDS011;40226;50.874;4.394;2022-08-20T02:31:31;23.52;;;7.20;;
23596;SDS011;40226;50.874;4.394;2022-08-20T02:33:57;22.10;;;7.22;;
23596;SDS011;40226;50.874;4.394;2022-08-20T02:36:23;24.23;;;8.77;;
23596;SDS011;40226;50.874;4.394;2022-08-20T02:38:50;27.17;;;8.63;;
23596;SDS011;40226;50.874;4.394;2022-08-20T02:41:16;26.30;;;8.73;;
23596;SDS011;40226;50.874;4.394;2022-08-20T02:43:42;27.33;;;8.38;;
23596;SDS011;40226;50.874;4.394;2022-08-20T02:46:08;33.13;;;9.20;;
23596;SDS011;40226;50.874;4.394;2022-08-20T02:48:33;24.40;;;8.48;;
23596;SDS011;40226;50.874;4.394;2022-08-20T02:51:00;25.98;;;9.02;;
23596;SDS011;40226;50.874;4.394;2022-08-20T02:53:32;21.73;;;8.27;;
23596;SDS011;40226;50.874;4.394;2022-08-20T02:55:59;22.67;;;9.18;;
23596;SDS011;40226;50.874;4.394;2022-08-20T02:58:25;29.67;;;9.45;;
23596;SDS011;40226;50.874;4.394;2022-08-20T03:00:51;22.45;;;8.35;;
23596;SDS011;40226;50.874;4.394;2022-08-20T03:03:18;26.80;;;9.27;;
23596;SDS011;40226;50.874;4.394;2022-08-20T03:05:46;26.75;;;8.52;;
23596;SDS011;40226;50.874;4.394;2022-08-20T03:08:13;27.55;;;9.18;;
23596;SDS011;40226;50.874;4.394;2022-08-20T03:10:41;26.35;;;9.00;;
23596;SDS011;40226;50.874;4.394;2022-08-20T03:13:07;29.98;;;10.15;;
23596;SDS011;40226;50.874;4.394;2022-08-20T03:15:37;26.92;;;8.98;;
23596;SDS011;40226;50.874;4.394;2022-08-20T03:18:14;28.77;;;9.23;;
23596;SDS011;40226;50.874;4.394;2022-08-20T03:20:41;27.88;;;10.23;;
23596;SDS011;40226;50.874;4.394;2022-08-20T03:23:07;27.45;;;8.98;;
23596;SDS011;40226;50.874;4.394;2022-08-20T03:25:33;29.20;;;10.25;;
23596;SDS011;40226;50.874;4.394;2022-08-20T03:27:58;32.85;;;9.13;;
23596;SDS011;40226;50.874;4.394;2022-08-20T03:30:25;29.80;;;9.98;;
23596;SDS011;40226;50.874;4.394;2022-08-20T03:32:52;28.15;;;9.07;;
23596;SDS011;40226;50.874;4.394;2022-08-20T03:35:19;22.35;;;8.70;;
23596;SDS011;40226;50.874;4.394;2022-08-20T03:37:46;26.83;;;10.35;;
23596;SDS011;40226;50.874;4.394;2022-08-20T03:40:14;27.17;;;10.13;;
23596;SDS011;40226;50.874;4.394;2022-08-20T03:42:42;28.90;;;9.27;;
23596;SDS011;40226;50.874;4.394;2022-08-20T03:45:09;27.90;;;10.55;;
23596;SDS011;40226;50.874;4.394;2022-08-20T03:47:36;28.80;;;10.18;;
23596;SDS011;40226;50.874;4.394;2022-08-20T03:50:03;26.65;;;9.85;;
23596;SDS011;40226;50.874;4.394;2022-08-20T03:52:30;29.38;;;9.73;;
23596;SDS011;40226;50.874;4.394;2022-08-20T03:54:56;25.83;;;9.70;;
23596;SDS011;40226;50.874;4.394;2022-08-20T03:57:21;27.88;;;10.13;;
23596;SDS011;40226;50.874;4.394;2022-08-20T03:59:47;25.75;;;10.45;;
23596;SDS011;40226;50.874;4.394;2022-08-20T04:02:13;28.40;;;9.90;;
23596;SDS011;40226;50.874;4.394;2022-08-20T04:04:39;28.95;;;10.52;;
23596;SDS011;40226;50.874;4.394;2022-08-20T04:07:12;30.83;;;10.32;;
23596;SDS011;40226;50.874;4.394;2022-08-20T04:09:49;34.58;;;11.35;;
23596;SDS011;40226;50.874;4.394;2022-08-20T04:12:16;32.47;;;10.23;;
23596;SDS011;40226;50.874;4.394;2022-08-20T04:14:42;30.98;;;10.27;;
23596;SDS011;40226;50.874;4.394;2022-08-20T04:17:09;36.45;;;11.50;;
23596;SDS011;40226;50.874;4.394;2022-08-20T04:19:36;31.02;;;11.63;;
23596;SDS011;40226;50.874;4.394;2022-08-20T04:22:02;26.40;;;11.45;;
23596;SDS011;40226;50.874;4.394;2022-08-20T04:24:29;31.73;;;10.80;;
23596;SDS011;40226;50.874;4.394;2022-08-20T04:26:55;32.10;;;11.40;;
23596;SDS011;40226;50.874;4.394;2022-08-20T04:29:22;28.30;;;10.63;;
23596;SDS011;40226;50.874;4.394;2022-08-20T04:31:49;32.95;;;10.65;;
23596;SDS011;40226;50.874;4.394;2022-08-20T04:34:16;31.50;;;11.85;;
23596;SDS011;40226;50.874;4.394;2022-08-20T04:36:43;32.92;;;11.43;;
23596;SDS011;40226;50.874;4.394;2022-08-20T04:39:11;34.38;;;12.10;;
23596;SDS011;40226;50.874;4.394;2022-08-20T04:41:36;27.23;;;11.20;;
23596;SDS011;40226;50.874;4.394;2022-08-20T04:44:02;29.73;;;11.45;;
23596;SDS011;40226;50.874;4.394;2022-08-20T04:46:28;29.30;;;11.27;;
23596;SDS011;40226;50.874;4.394;2022-08-20T04:48:56;26.88;;;11.15;;
23596;SDS011;40226;50.874;4.394;2022-08-20T04:51:22;29.85;;;10.98;;
23596;SDS011;40226;50.874;4.394;2022-08-20T04:53:49;36.97;;;11.63;;
23596;SDS011;40226;50.874;4.394;2022-08-20T04:56:17;31.50;;;12.82;;
23596;SDS011;40226;50.874;4.394;2022-08-20T04:58:43;28.55;;;11.48;;
23596;SDS011;40226;50.874;4.394;2022-08-20T05:01:14;33.72;;;11.85;;
23596;SDS011;40226;50.874;4.394;2022-08-20T05:03:42;25.88;;;11.07;;
23596;SDS011;40226;50.874;4.394;2022-08-20T05:06:11;28.83;;;11.07;;
23596;SDS011;40226;50.874;4.394;2022-08-20T05:08:37;36.60;;;12.82;;
23596;SDS011;40226;50.874;4.394;2022-08-20T05:11:04;26.92;;;11.98;;
23596;SDS011;40226;50.874;4.394;2022-08-20T05:13:30;30.90;;;11.68;;
23596;SDS011;40226;50.874;4.394;2022-08-20T05:15:56;32.90;;;11.82;;
23596;SDS011;40226;50.874;4.394;2022-08-20T05:18:24;31.13;;;11.43;;
23596;SDS011;40226;50.874;4.394;2022-08-20T05:20:51;34.53;;;12.63;;
23596;SDS011;40226;50.874;4.394;2022-08-20T05:23:17;36.35;;;12.15;;
23596;SDS011;40226;50.874;4.394;2022-08-20T05:25:45;29.77;;;11.55;;
23596;SDS011;40226;50.874;4.394;2022-08-20T05:28:16;31.25;;;11.48;;
23596;SDS011;40226;50.874;4.394;2022-08-20T05:30:44;33.08;;;12.07;;
23596;SDS011;40226;50.874;4.394;2022-08-20T05:33:11;37.30;;;12.40;;
23596;SDS011;40226;50.874;4.394;2022-08-20T05:35:39;33.30;;;12.18;;
23596;SDS011;40226;50.874;4.394;2022-08-20T05:38:10;32.50;;;11.07;;
23596;SDS011;40226;50.874;4.394;2022-08-20T05:40:38;31.85;;;11.43;;
23596;SDS011;40226;50.874;4.394;2022-08-20T05:43:05;33.35;;;12.43;;
23596;SDS011;40226;50.874;4.394;2022-08-20T05:45:32;29.15;;;11.73;;
23596;SDS011;40226;50.874;4.394;2022-08-20T05:48:10;30.33;;;12.07;;
23596;SDS011;40226;50.874;4.394;2022-08-20T05:50:39;34.60;;;11.98;;
23596;SDS011;40226;50.874;4.394;2022-08-20T05:53:06;28.67;;;11.85;;
23596;SDS011;40226;50.874;4.394;2022-08-20T05:55:31;31.08;;;11.60;;
23596;SDS011;40226;50.874;4.394;2022-08-20T05:58:00;26.73;;;11.25;;
23596;SDS011;40226;50.874;4.394;2022-08-20T06:00:28;37.95;;;12.82;;
23596;SDS011;40226;50.874;4.394;2022-08-20T06:02:54;25.17;;;11.50;;
23596;SDS011;40226;50.874;4.394;2022-08-20T06:05:39;27.95;;;11.55;;
23596;SDS011;40226;50.874;4.394;2022-08-20T06:08:05;29.08;;;11.82;;
23596;SDS011;40226;50.874;4.394;2022-08-20T06:10:32;36.78;;;12.57;;
23596;SDS011;40226;50.874;4.394;2022-08-20T06:12:57;31.15;;;12.10;;
23596;SDS011;40226;50.874;4.394;2022-08-20T06:15:23;30.98;;;12.23;;
23596;SDS011;40226;50.874;4.394;2022-08-20T06:17:49;33.53;;;12.57;;
23596;SDS011;40226;50.874;4.394;2022-08-20T06:20:14;32.10;;;12.32;;
23596;SDS011;40226;50.874;4.394;2022-08-20T06:22:40;36.22;;;12.60;;
23596;SDS011;40226;50.874;4.394;2022-08-20T06:25:05;28.58;;;12.63;;
23596;SDS011;40226;50.874;4.394;2022-08-20T06:27:32;28.70;;;12.25;;
23596;SDS011;40226;50.874;4.394;2022-08-20T06:30:01;29.13;;;12.23;;
23596;SDS011;40226;50.874;4.394;2022-08-20T06:32:27;31.52;;;11.82;;
23596;SDS011;40226;50.874;4.394;2022-08-20T06:34:53;27.90;;;12.18;;
23596;SDS011;40226;50.874;4.394;2022-08-20T06:37:23;32.30;;;12.27;;
23596;SDS011;40226;50.874;4.394;2022-08-20T06:39:50;32.13;;;12.60;;
23596;SDS011;40226;50.874;4.394;2022-08-20T06:42:17;24.60;;;12.30;;
23596;SDS011;40226;50.874;4.394;2022-08-20T06:44:44;27.40;;;12.68;;
23596;SDS011;40226;50.874;4.394;2022-08-20T06:47:17;30.27;;;12.73;;
23596;SDS011;40226;50.874;4.394;2022-08-20T06:49:44;34.17;;;12.93;;
23596;SDS011;40226;50.874;4.394;2022-08-20T06:52:11;28.73;;;12.18;;
23596;SDS011;40226;50.874;4.394;2022-08-20T06:54:39;30.92;;;12.93;;
23596;SDS011;40226;50.874;4.394;2022-08-20T06:57:05;28.75;;;11.90;;
23596;SDS011;40226;50.874;4.394;2022-08-20T06:59:31;27.17;;;12.35;;
23596;SDS011;40226;50.874;4.394;2022-08-20T07:01:56;30.33;;;12.57;;
23596;SDS011;40226;50.874;4.394;2022-08-20T07:04:22;28.83;;;12.63;;
23596;SDS011;40226;50.874;4.394;2022-08-20T07:06:50;27.48;;;12.82;;
23596;SDS011;40226;50.874;4.394;2022-08-20T07:09:17;32.50;;;13.60;;
23596;SDS011;40226;50.874;4.394;2022-08-20T07:11:44;27.65;;;12.43;;
23596;SDS011;40226;50.874;4.394;2022-08-20T07:14:10;31.35;;;13.00;;
23596;SDS011;40226;50.874;4.394;2022-08-20T07:16:36;30.95;;;13.52;;
23596;SDS011;40226;50.874;4.394;2022-08-20T07:19:02;38.78;;;16.55;;
23596;SDS011;40226;50.874;4.394;2022-08-20T07:21:28;29.05;;;14.02;;
23596;SDS011;40226;50.874;4.394;2022-08-20T07:23:54;34.45;;;13.40;;
23596;SDS011;40226;50.874;4.394;2022-08-20T07:26:20;31.15;;;13.35;;
23596;SDS011;40226;50.874;4.394;2022-08-20T07:28:46;31.13;;;13.32;;
23596;SDS011;40226;50.874;4.394;2022-08-20T07:31:12;23.25;;;12.43;;
23596;SDS011;40226;50.874;4.394;2022-08-20T07:33:57;26.70;;;12.50;;
23596;SDS011;40226;50.874;4.394;2022-08-20T07:36:23;35.08;;;12.52;;
23596;SDS011;40226;50.874;4.394;2022-08-20T07:38:49;31.48;;;12.38;;
23596;SDS011;40226;50.874;4.394;2022-08-20T07:41:16;27.92;;;13.10;;
23596;SDS011;40226;50.874;4.394;2022-08-20T07:43:44;29.95;;;13.32;;
23596;SDS011;40226;50.874;4.394;2022-08-20T07:46:10;26.63;;;13.02;;
23596;SDS011;40226;50.874;4.394;2022-08-20T07:48:38;27.40;;;12.98;;
23596;SDS011;40226;50.874;4.394;2022-08-20T07:51:06;29.30;;;12.93;;
23596;SDS011;40226;50.874;4.394;2022-08-20T07:53:33;23.88;;;12.35;;
23596;SDS011;40226;50.874;4.394;2022-08-20T07:56:01;24.88;;;13.55;;
23596;SDS011;40226;50.874;4.394;2022-08-20T07:58:32;26.95;;;13.35;;
23596;SDS011;40226;50.874;4.394;2022-08-20T08:00:59;27.60;;;12.35;;
23596;SDS011;40226;50.874;4.394;2022-08-20T08:03:25;27.48;;;12.88;;
23596;SDS011;40226;50.874;4.394;2022-08-20T08:05:53;21.17;;;13.40;;
23596;SDS011;40226;50.874;4.394;2022-08-20T08:08:19;23.90;;;12.55;;
23596;SDS011;40226;50.874;4.394;2022-08-20T08:10:54;26.13;;;12.27;;
23596;SDS011;40226;50.874;4.394;2022-08-20T08:13:22;28.55;;;12.90;;
23596;SDS011;40226;50.874;4.394;2022-08-20T08:15:51;29.83;;;12.27;;
23596;SDS011;40226;50.874;4.394;2022-08-20T08:18:22;24.48;;;11.48;;
23596;SDS011;40226;50.874;4.394;2022-08-20T08:20:51;25.13;;;11.60;;
23596;SDS011;40226;50.874;4.394;2022-08-20T08:23:21;23.70;;;11.43;;
23596;SDS011;40226;50.874;4.394;2022-08-20T08:25:48;23.83;;;11.13;;
23596;SDS011;40226;50.874;4.394;2022-08-20T08:28:18;25.60;;;11.40;;
23596;SDS011;40226;50.874;4.394;2022-08-20T08:30:45;21.83;;;11.55;;
23596;SDS011;40226;50.874;4.394;2022-08-20T08:33:22;22.10;;;10.30;;
23596;SDS011;40226;50.874;4.394;2022-08-20T08:35:53;22.10;;;10.48;;
23596;SDS011;40226;50.874;4.394;2022-08-20T08:38:20;18.92;;;10.75;;
23596;SDS011;40226;50.874;4.394;2022-08-20T08:40:47;21.40;;;9.40;;
23596;SDS011;40226;50.874;4.394;2022-08-20T08:43:18;20.70;;;9.13;;
23596;SDS011;40226;50.874;4.394;2022-08-20T08:45:50;18.77;;;9.30;;
23596;SDS011;40226;50.874;4.394;2022-08-20T08:48:21;15.07;;;8.40;;
23596;SDS011;40226;50.874;4.394;2022-08-20T08:50:56;17.25;;;7.38;;
23596;SDS011;40226;50.874;4.394;2022-08-20T08:53:25;20.05;;;8.30;;
23596;SDS011;40226;50.874;4.394;2022-08-20T08:56:01;22.35;;;7.22;;
23596;SDS011;40226;50.874;4.394;2022-08-20T08:58:29;20.77;;;7.65;;
23596;SDS011;40226;50.874;4.394;2022-08-20T09:00:55;13.88;;;7.00;;
23596;SDS011;40226;50.874;4.394;2022-08-20T09:03:39;16.15;;;6.85;;
23596;SDS011;40226;50.874;4.394;2022-08-20T09:06:09;13.45;;;5.20;;
23596;SDS011;40226;50.874;4.394;2022-08-20T09:08:43;16.45;;;6.93;;
23596;SDS011;40226;50.874;4.394;2022-08-20T09:11:11;14.00;;;7.00;;
23596;SDS011;40226;50.874;4.394;2022-08-20T09:13:38;15.75;;;6.07;;
23596;SDS011;40226;50.874;4.394;2022-08-20T09:16:04;13.68;;;4.90;;
23596;SDS011;40226;50.874;4.394;2022-08-20T09:18:30;16.73;;;5.40;;
23596;SDS011;40226;50.874;4.394;2022-08-20T09:20:56;12.85;;;4.88;;
23596;SDS011;40226;50.874;4.394;2022-08-20T09:23:21;15.32;;;5.30;;
23596;SDS011;40226;50.874;4.394;2022-08-20T09:25:47;12.95;;;4.93;;
23596;SDS011;40226;50.874;4.394;2022-08-20T09:28:13;16.10;;;4.75;;
23596;SDS011;40226;50.874;4.394;2022-08-20T09:30:38;13.75;;;4.18;;
23596;SDS011;40226;50.874;4.394;2022-08-20T09:33:04;12.57;;;3.50;;
23596;SDS011;40226;50.874;4.394;2022-08-20T09:35:30;12.80;;;4.03;;
23596;SDS011;40226;50.874;4.394;2022-08-20T09:37:55;13.30;;;4.00;;
23596;SDS011;40226;50.874;4.394;2022-08-20T09:40:21;10.63;;;3.88;;
23596;SDS011;40226;50.874;4.394;2022-08-20T09:42:47;12.55;;;3.88;;
23596;SDS011;40226;50.874;4.394;2022-08-20T09:45:13;11.02;;;3.33;;
23596;SDS011;40226;50.874;4.394;2022-08-20T09:47:39;11.80;;;3.90;;
23596;SDS011;40226;50.874;4.394;2022-08-20T09:50:06;17.42;;;3.80;;
23596;SDS011;40226;50.874;4.394;2022-08-20T09:52:36;12.25;;;3.65;;
23596;SDS011;40226;50.874;4.394;2022-08-20T09:55:51;12.20;;;3.38;;
23596;SDS011;40226;50.874;4.394;2022-08-20T09:57:54;8.73;;;2.83;;
23596;SDS011;40226;50.874;4.394;2022-08-20T10:00:20;9.93;;;2.78;;
23596;SDS011;40226;50.874;4.394;2022-08-20T10:02:45;9.70;;;2.97;;
23596;SDS011;40226;50.874;4.394;2022-08-20T10:05:11;12.57;;;3.10;;
23596;SDS011;40226;50.874;4.394;2022-08-20T10:07:37;9.45;;;3.05;;
23596;SDS011;40226;50.874;4.394;2022-08-20T10:10:04;11.93;;;3.35;;
23596;SDS011;40226;50.874;4.394;2022-08-20T10:12:32;10.13;;;3.05;;
23596;SDS011;40226;50.874;4.394;2022-08-20T10:14:57;12.48;;;3.28;;
23596;SDS011;40226;50.874;4.394;2022-08-20T10:17:23;10.70;;;3.13;;
23596;SDS011;40226;50.874;4.394;2022-08-20T10:19:48;11.52;;;3.20;;
23596;SDS011;40226;50.874;4.394;2022-08-20T10:22:14;15.57;;;3.38;;
23596;SDS011;40226;50.874;4.394;2022-08-20T10:24:40;12.70;;;3.38;;
23596;SDS011;40226;50.874;4.394;2022-08-20T10:27:06;8.30;;;2.90;;
23596;SDS011;40226;50.874;4.394;2022-08-20T10:29:32;13.05;;;4.10;;
23596;SDS011;40226;50.874;4.394;2022-08-20T10:32:02;12.07;;;3.45;;
23596;SDS011;40226;50.874;4.394;2022-08-20T10:34:33;10.73;;;2.90;;
23596;SDS011;40226;50.874;4.394;2022-08-20T10:36:59;12.82;;;3.35;;
23596;SDS011;40226;50.874;4.394;2022-08-20T10:39:24;11.60;;;3.58;;
23596;SDS011;40226;50.874;4.394;2022-08-20T10:41:50;14.43;;;3.28;;
23596;SDS011;40226;50.874;4.394;2022-08-20T10:44:15;19.42;;;5.60;;
23596;SDS011;40226;50.874;4.394;2022-08-20T10:46:41;11.38;;;4.07;;
23596;SDS011;40226;50.874;4.394;2022-08-20T10:49:09;9.07;;;3.03;;
23596;SDS011;40226;50.874;4.394;2022-08-20T10:51:35;10.80;;;3.22;;
23596;SDS011;40226;50.874;4.394;2022-08-20T10:54:01;11.38;;;5.18;;
23596;SDS011;40226;50.874;4.394;2022-08-20T10:56:26;10.77;;;2.97;;
23596;SDS011;40226;50.874;4.394;2022-08-20T10:58:52;13.68;;;5.15;;
23596;SDS011;40226;50.874;4.394;2022-08-20T11:01:17;48.65;;;28.48;;
23596;SDS011;40226;50.874;4.394;2022-08-20T11:03:43;11.38;;;3.78;;
23596;SDS011;40226;50.874;4.394;2022-08-20T11:06:08;14.30;;;5.75;;
23596;SDS011;40226;50.874;4.394;2022-08-20T11:08:42;14.85;;;6.32;;
23596;SDS011;40226;50.874;4.394;2022-08-20T11:11:10;10.02;;;3.65;;
23596;SDS011;40226;50.874;4.394;2022-08-20T11:13:39;10.05;;;3.20;;
23596;SDS011;40226;50.874;4.394;2022-08-20T11:16:04;11.60;;;3.28;;
23596;SDS011;40226;50.874;4.394;2022-08-20T11:18:30;8.80;;;3.05;;
23596;SDS011;40226;50.874;4.394;2022-08-20T11:20:56;8.43;;;2.90;;
23596;SDS011;40226;50.874;4.394;2022-08-20T11:23:22;8.60;;;3.33;;
23596;SDS011;40226;50.874;4.394;2022-08-20T11:25:48;7.80;;;3.08;;
23596;SDS011;40226;50.874;4.394;2022-08-20T11:28:14;11.98;;;3.72;;
23596;SDS011;40226;50.874;4.394;2022-08-20T11:30:40;11.85;;;3.05;;
23596;SDS011;40226;50.874;4.394;2022-08-20T11:33:05;12.32;;;3.42;;
23596;SDS011;40226;50.874;4.394;2022-08-20T11:35:32;9.77;;;2.85;;
23596;SDS011;40226;50.874;4.394;2022-08-20T11:38:00;11.00;;;4.03;;
23596;SDS011;40226;50.874;4.394;2022-08-20T11:40:28;13.77;;;4.68;;
23596;SDS011;40226;50.874;4.394;2022-08-20T11:42:55;7.63;;;2.92;;
23596;SDS011;40226;50.874;4.394;2022-08-20T11:45:21;10.93;;;3.45;;
23596;SDS011;40226;50.874;4.394;2022-08-20T11:47:46;12.68;;;3.33;;
23596;SDS011;40226;50.874;4.394;2022-08-20T11:50:16;13.73;;;3.13;;
23596;SDS011;40226;50.874;4.394;2022-08-20T11:52:44;9.65;;;2.92;;
23596;SDS011;40226;50.874;4.394;2022-08-20T11:55:10;8.35;;;2.55;;
23596;SDS011;40226;50.874;4.394;2022-08-20T11:57:43;9.30;;;3.00;;
23596;SDS011;40226;50.874;4.394;2022-08-20T12:00:16;10.82;;;2.92;;
23596;SDS011;40226;50.874;4.394;2022-08-20T12:02:45;11.00;;;2.65;;
23596;SDS011;40226;50.874;4.394;2022-08-20T12:05:12;9.18;;;2.70;;
23596;SDS011;40226;50.874;4.394;2022-08-20T12:07:38;6.18;;;2.58;;
23596;SDS011;40226;50.874;4.394;2022-08-20T12:13:27;15.13;;;6.18;;
23596;SDS011;40226;50.874;4.394;2022-08-20T12:15:54;9.80;;;2.95;;
23596;SDS011;40226;50.874;4.394;2022-08-20T12:18:20;9.60;;;3.35;;
23596;SDS011;40226;50.874;4.394;2022-08-20T12:20:46;9.65;;;3.08;;
23596;SDS011;40226;50.874;4.394;2022-08-20T12:23:12;9.38;;;3.10;;
23596;SDS011;40226;50.874;4.394;2022-08-20T12:25:37;6.43;;;2.72;;
23596;SDS011;40226;50.874;4.394;2022-08-20T12:28:03;7.00;;;2.42;;
23596;SDS011;40226;50.874;4.394;2022-08-20T12:30:29;6.95;;;2.35;;
23596;SDS011;40226;50.874;4.394;2022-08-20T12:32:56;9.70;;;2.40;;
23596;SDS011;40226;50.874;4.394;2022-08-20T12:35:22;9.98;;;3.42;;
23596;SDS011;40226;50.874;4.394;2022-08-20T12:37:48;6.45;;;2.47;;
23596;SDS011;40226;50.874;4.394;2022-08-20T12:40:15;4.97;;;2.05;;
23596;SDS011;40226;50.874;4.394;2022-08-20T12:42:46;5.53;;;2.30;;
23596;SDS011;40226;50.874;4.394;2022-08-20T12:45:12;8.23;;;2.20;;
23596;SDS011;40226;50.874;4.394;2022-08-20T12:47:39;7.63;;;2.13;;
23596;SDS011;40226;50.874;4.394;2022-08-20T12:50:08;9.48;;;3.63;;
23596;SDS011;40226;50.874;4.394;2022-08-20T12:52:38;9.52;;;2.38;;
23596;SDS011;40226;50.874;4.394;2022-08-20T12:55:05;9.30;;;2.42;;
23596;SDS011;40226;50.874;4.394;2022-08-20T12:57:33;7.18;;;2.20;;
23596;SDS011;40226;50.874;4.394;2022-08-20T13:00:05;6.82;;;2.10;;
23596;SDS011;40226;50.874;4.394;2022-08-20T13:02:34;7.05;;;2.25;;
23596;SDS011;40226;50.874;4.394;2022-08-20T13:05:00;6.60;;;2.28;;
23596;SDS011;40226;50.874;4.394;2022-08-20T13:07:25;8.32;;;2.50;;
23596;SDS011;40226;50.874;4.394;2022-08-20T13:09:51;6.10;;;2.72;;
23596;SDS011;40226;50.874;4.394;2022-08-20T13:12:25;6.45;;;2.17;;
23596;SDS011;40226;50.874;4.394;2022-08-20T13:14:52;6.55;;;1.98;;
23596;SDS011;40226;50.874;4.394;2022-08-20T13:17:18;5.78;;;1.88;;
23596;SDS011;40226;50.874;4.394;2022-08-20T13:19:44;6.75;;;1.95;;
23596;SDS011;40226;50.874;4.394;2022-08-20T13:22:10;5.88;;;1.95;;
23596;SDS011;40226;50.874;4.394;2022-08-20T13:24:38;7.75;;;2.20;;
23596;SDS011;40226;50.874;4.394;2022-08-20T13:27:06;5.80;;;1.92;;
23596;SDS011;40226;50.874;4.394;2022-08-20T13:29:34;4.35;;;2.10;;
23596;SDS011;40226;50.874;4.394;2022-08-20T13:32:00;6.97;;;2.08;;
23596;SDS011;40226;50.874;4.394;2022-08-20T13:34:26;4.63;;;1.90;;
23596;SDS011;40226;50.874;4.394;2022-08-20T13:36:51;5.70;;;1.98;;
23596;SDS011;40226;50.874;4.394;2022-08-20T13:39:21;5.75;;;2.45;;
23596;SDS011;40226;50.874;4.394;2022-08-20T13:42:05;9.30;;;2.33;;
23596;SDS011;40226;50.874;4.394;2022-08-20T13:44:31;7.68;;;2.35;;
23596;SDS011;40226;50.874;4.394;2022-08-20T13:46:57;7.35;;;2.70;;
23596;SDS011;40226;50.874;4.394;2022-08-20T13:49:22;8.50;;;2.30;;
23596;SDS011;40226;50.874;4.394;2022-08-20T13:51:48;5.85;;;2.47;;
23596;SDS011;40226;50.874;4.394;2022-08-20T13:54:13;7.47;;;2.28;;
23596;SDS011;40226;50.874;4.394;2022-08-20T13:56:39;6.25;;;2.55;;
23596;SDS011;40226;50.874;4.394;2022-08-20T13:59:05;4.47;;;2.00;;
23596;SDS011;40226;50.874;4.394;2022-08-20T14:01:30;6.18;;;2.10;;
23596;SDS011;40226;50.874;4.394;2022-08-20T14:03:56;7.60;;;2.30;;
23596;SDS011;40226;50.874;4.394;2022-08-20T14:06:21;6.85;;;2.30;;
23596;SDS011;40226;50.874;4.394;2022-08-20T14:08:47;7.93;;;2.40;;
23596;SDS011;40226;50.874;4.394;2022-08-20T14:11:12;4.18;;;1.85;;
23596;SDS011;40226;50.874;4.394;2022-08-20T14:13:38;5.65;;;2.17;;
23596;SDS011;40226;50.874;4.394;2022-08-20T14:16:04;6.90;;;2.53;;
23596;SDS011;40226;50.874;4.394;2022-08-20T14:18:29;5.25;;;2.10;;
23596;SDS011;40226;50.874;4.394;2022-08-20T14:20:55;6.28;;;2.22;;
23596;SDS011;40226;50.874;4.394;2022-08-20T14:23:20;6.25;;;2.15;;
23596;SDS011;40226;50.874;4.394;2022-08-20T14:25:47;5.88;;;2.13;;
23596;SDS011;40226;50.874;4.394;2022-08-20T14:28:22;6.55;;;2.25;;
23596;SDS011;40226;50.874;4.394;2022-08-20T14:30:48;6.25;;;2.40;;
23596;SDS011;40226;50.874;4.394;2022-08-20T14:33:15;6.68;;;2.35;;
23596;SDS011;40226;50.874;4.394;2022-08-20T14:35:40;6.18;;;2.00;;
23596;SDS011;40226;50.874;4.394;2022-08-20T14:38:07;5.60;;;1.90;;
23596;SDS011;40226;50.874;4.394;2022-08-20T14:40:33;5.75;;;2.20;;
23596;SDS011;40226;50.874;4.394;2022-08-20T14:42:59;6.65;;;1.95;;
23596;SDS011;40226;50.874;4.394;2022-08-20T14:45:25;5.57;;;2.05;;